Terminal Aerodrome Forecast
Issued by NWS

Home | Current Version | Previous Version | Text Only | Print | Product List | Glossary On
Versions: 1 2 3 4 5 6 7 8 9 10 11 12 13 14 15 16 17
000
FTUS45 KRIW 200531
TAFCPR
TAF
KCPR 200531Z 2006/2106 07016KT P6SM SCT090 BKN200
     FM200900 06014KT P6SM SCT050 OVC080
     FM201500 05014KT P6SM VCSH OVC025
     FM202000 05013KT 5SM -RA BR OVC015
     FM210100 04013KT 3SM -RASN OVC009=

USA.gov is the U.S. government's official web portal to all federal, state and local government web resources and services.